Time;durP1;ratioP1;P1;durP2;ratioP2;P2;SDS_P1;SDS_P2;PMS_P1;PMS_P2;Temp;Humidity;BMP_temperature;BMP_pressure;BME280_temperature;BME280_humidity;BME280_pressure;Samples;Min_cycle;Max_cycle;Signal;HPM_P1;HPM_P2
2022/05/06 00:02:09;;;;;;;17.92;12.75;;;13.20;69.10;;;;;;5051838;28;20491;-72
2022/05/06 00:04:35;;;;;;;19.38;14.00;;;13.20;69.30;;;;;;5050663;28;20053;-72
2022/05/06 00:07:00;;;;;;;19.50;13.77;;;13.20;69.50;;;;;;5047278;28;20082;-71
2022/05/06 00:09:26;;;;;;;19.35;13.82;;;13.10;69.60;;;;;;5053923;28;20033;-74
2022/05/06 00:11:52;;;;;;;19.38;13.38;;;13.00;69.70;;;;;;5052999;28;20025;-74
2022/05/06 00:14:19;;;;;;;20.40;14.55;;;13.00;70.00;;;;;;5059371;28;20040;-71
2022/05/06 00:16:44;;;;;;;19.42;13.18;;;13.00;70.20;;;;;;5051168;28;20029;-74
2022/05/06 00:19:10;;;;;;;19.33;13.93;;;12.90;70.50;;;;;;5049244;28;20543;-71
2022/05/06 00:21:36;;;;;;;20.45;14.93;;;12.90;70.50;;;;;;5061713;28;20021;-72
2022/05/06 00:24:02;;;;;;;20.63;14.85;;;12.90;70.70;;;;;;5048698;28;20033;-72
2022/05/06 00:26:28;;;;;;;20.75;15.02;;;12.80;71.00;;;;;;5053117;28;20056;-73
2022/05/06 00:28:53;;;;;;;22.13;15.50;;;12.80;71.00;;;;;;5052889;28;20438;-72
2022/05/06 00:31:19;;;;;;;22.13;15.73;;;12.80;71.30;;;;;;5050522;28;20426;-72
2022/05/06 00:33:44;;;;;;;21.13;15.15;;;12.80;71.60;;;;;;5051062;28;20029;-73
2022/05/06 00:36:10;;;;;;;21.58;14.13;;;12.80;71.70;;;;;;5053969;28;20630;-72
2022/05/06 00:38:36;;;;;;;22.63;15.27;;;12.80;71.70;;;;;;5050325;28;20047;-72
2022/05/06 00:41:01;;;;;;;24.23;15.93;;;12.80;71.80;;;;;;5048978;28;20021;-72
2022/05/06 00:43:27;;;;;;;19.45;13.48;;;12.80;71.90;;;;;;5052819;28;20522;-72
2022/05/06 00:45:57;;;;;;;21.70;13.73;;;12.80;71.70;;;;;;5053032;28;20598;-73
2022/05/06 00:48:29;;;;;;;20.65;13.52;;;12.80;71.70;;;;;;5052513;28;20037;-71
2022/05/06 00:50:59;;;;;;;22.83;15.63;;;12.80;71.70;;;;;;5055393;28;20036;-71
2022/05/06 00:53:25;;;;;;;21.98;14.15;;;12.80;71.90;;;;;;5052637;28;20030;-72
2022/05/06 00:55:52;;;;;;;22.63;14.77;;;12.80;71.90;;;;;;5053972;28;20441;-71
2022/05/06 00:58:18;;;;;;;23.55;16.05;;;12.70;72.00;;;;;;5049477;28;20022;-71
2022/05/06 01:00:44;;;;;;;24.83;16.75;;;12.70;72.20;;;;;;5053627;28;20039;-75
2022/05/06 01:03:11;;;;;;;23.08;15.38;;;12.70;72.40;;;;;;5051260;28;20395;-74
2022/05/06 01:05:38;;;;;;;21.00;14.02;;;12.60;72.70;;;;;;5049789;28;20037;-74
2022/05/06 01:08:05;;;;;;;21.20;14.75;;;12.60;72.70;;;;;;5056691;28;20021;-73
2022/05/06 01:10:31;;;;;;;17.85;12.63;;;12.60;72.70;;;;;;5062890;28;20542;-74
2022/05/06 01:12:56;;;;;;;18.85;13.23;;;12.60;72.70;;;;;;5050216;28;20110;-71
2022/05/06 01:15:24;;;;;;;19.52;13.57;;;12.50;72.70;;;;;;5055540;28;20159;-71
2022/05/06 01:17:51;;;;;;;24.17;15.85;;;12.50;72.70;;;;;;5048893;28;20635;-74
2022/05/06 01:20:19;;;;;;;25.15;16.25;;;12.40;72.80;;;;;;5051355;28;20037;-73
2022/05/06 01:22:49;;;;;;;25.05;16.42;;;12.40;73.00;;;;;;5054341;28;20123;-72
2022/05/06 01:25:16;;;;;;;27.23;18.00;;;12.40;73.20;;;;;;5052135;28;20017;-73
2022/05/06 01:27:53;;;;;;;25.75;17.33;;;12.40;73.40;;;;;;5050799;28;20491;-73
2022/05/06 01:30:37;;;;;;;25.95;18.20;;;12.30;73.60;;;;;;5050911;28;20033;-74
2022/05/06 01:33:06;;;;;;;25.10;17.23;;;12.40;73.90;;;;;;5052328;28;20394;-72
2022/05/06 01:35:35;;;;;;;27.20;17.05;;;12.30;73.80;;;;;;5052142;28;20032;-73
2022/05/06 01:38:04;;;;;;;28.15;18.52;;;12.30;74.00;;;;;;5049604;28;20036;-73
2022/05/06 01:40:37;;;;;;;27.80;17.80;;;12.30;74.30;;;;;;5032890;28;20040;-72
2022/05/06 01:43:05;;;;;;;27.65;16.77;;;12.30;74.20;;;;;;5056531;28;20033;-73
2022/05/06 01:45:34;;;;;;;28.05;17.80;;;12.30;74.20;;;;;;5055364;28;20048;-73
2022/05/06 01:48:02;;;;;;;31.38;18.80;;;12.30;74.30;;;;;;5049186;28;20028;-72
2022/05/06 01:50:30;;;;;;;26.15;16.45;;;12.30;74.50;;;;;;5047209;28;20596;-74
2022/05/06 01:52:56;;;;;;;29.15;17.77;;;12.30;74.40;;;;;;5047973;28;20478;-71
2022/05/06 01:55:23;;;;;;;35.42;19.67;;;12.30;74.50;;;;;;5048070;28;20096;-72
2022/05/06 01:57:48;;;;;;;30.05;19.10;;;12.30;74.90;;;;;;5048732;28;20067;-72
2022/05/06 02:00:15;;;;;;;29.23;18.92;;;12.30;75.10;;;;;;5049337;28;20474;-72
2022/05/06 02:02:41;;;;;;;39.63;20.67;;;12.30;75.20;;;;;;5055305;28;20060;-72
2022/05/06 02:05:22;;;;;;;40.85;20.88;;;12.30;75.50;;;;;;5047899;28;20390;-72
2022/05/06 02:07:50;;;;;;;46.10;18.63;;;12.20;75.90;;;;;;5056207;28;20429;-72
2022/05/06 02:10:17;;;;;;;39.97;17.05;;;12.20;76.20;;;;;;5043981;28;20021;-71
2022/05/06 02:12:44;;;;;;;43.33;17.90;;;12.20;76.50;;;;;;5050446;28;20502;-72
2022/05/06 02:15:11;;;;;;;35.10;14.95;;;12.20;76.70;;;;;;5048879;28;20029;-73
2022/05/06 02:17:38;;;;;;;60.17;18.65;;;12.10;76.70;;;;;;5045515;28;20025;-72
2022/05/06 02:20:05;;;;;;;38.22;17.90;;;12.10;77.20;;;;;;5049258;28;20028;-74
2022/05/06 02:22:31;;;;;;;32.55;15.15;;;12.00;77.30;;;;;;5050201;28;20035;-72
2022/05/06 02:24:57;;;;;;;37.25;16.08;;;12.00;77.30;;;;;;5048396;28;20649;-72
2022/05/06 02:27:23;;;;;;;35.20;15.63;;;11.90;77.40;;;;;;5050314;28;20100;-74
2022/05/06 02:35:16;;;;;;;29.50;12.75;;;12.00;77.00;;;;;;5045544;28;20028;-74
2022/05/06 02:37:42;;;;;;;29.60;14.82;;;12.00;76.80;;;;;;5050713;28;20029;-72
2022/05/06 02:40:09;;;;;;;37.80;14.40;;;12.00;76.90;;;;;;5047257;28;20022;-72
2022/05/06 02:42:35;;;;;;;22.52;12.68;;;12.00;76.70;;;;;;5048937;28;20056;-71
2022/05/06 02:45:00;;;;;;;39.30;12.88;;;12.00;76.70;;;;;;5044838;28;20140;-72
2022/05/06 02:47:26;;;;;;;26.20;12.65;;;12.00;76.50;;;;;;5044665;28;20033;-72
2022/05/06 02:49:52;;;;;;;27.98;12.15;;;12.10;76.50;;;;;;5047527;28;20025;-72
2022/05/06 02:52:18;;;;;;;19.48;11.68;;;12.00;76.20;;;;;;5052211;28;20047;-72
2022/05/06 02:54:45;;;;;;;20.48;11.60;;;12.00;76.30;;;;;;5048203;28;20033;-72
2022/05/06 02:57:10;;;;;;;34.65;10.90;;;11.90;76.30;;;;;;5048361;28;20348;-72
2022/05/06 02:59:36;;;;;;;16.75;10.13;;;11.90;76.30;;;;;;5048252;28;20043;-72
2022/05/06 03:02:02;;;;;;;23.23;11.30;;;11.80;76.30;;;;;;5049455;28;20075;-72
2022/05/06 03:04:28;;;;;;;16.45;9.43;;;11.70;76.40;;;;;;5044947;28;20029;-72
2022/05/06 03:06:53;;;;;;;15.02;11.00;;;11.60;76.40;;;;;;5046508;28;20083;-75
2022/05/06 03:09:19;;;;;;;20.52;11.80;;;11.60;76.40;;;;;;5047632;28;20021;-73
2022/05/06 03:11:45;;;;;;;15.43;10.90;;;11.60;76.30;;;;;;5050034;28;20017;-73
2022/05/06 03:14:11;;;;;;;23.80;10.02;;;11.60;76.30;;;;;;5045745;28;20048;-71
2022/05/06 03:16:36;;;;;;;13.27;9.27;;;11.50;76.20;;;;;;5049204;28;20059;-72
2022/05/06 03:19:02;;;;;;;18.27;10.20;;;11.50;76.20;;;;;;5045097;28;20130;-72
2022/05/06 03:21:28;;;;;;;18.77;8.80;;;11.50;76.10;;;;;;5048125;28;20032;-71
2022/05/06 03:23:54;;;;;;;17.30;9.98;;;11.50;76.00;;;;;;5048741;28;20502;-71
2022/05/06 03:26:20;;;;;;;16.83;10.40;;;11.40;76.10;;;;;;5051470;28;20482;-71
2022/05/06 03:28:46;;;;;;;12.55;9.60;;;11.40;76.10;;;;;;5051832;28;20051;-72
2022/05/06 03:31:13;;;;;;;15.73;9.00;;;11.30;76.10;;;;;;5046690;28;20052;-70
2022/05/06 03:33:41;;;;;;;14.23;9.45;;;11.30;76.00;;;;;;5046578;28;20064;-71
2022/05/06 03:36:09;;;;;;;14.82;9.15;;;11.30;75.90;;;;;;5045950;28;20466;-72
2022/05/06 03:38:35;;;;;;;18.70;9.02;;;11.40;75.80;;;;;;5047895;28;20051;-73
2022/05/06 03:41:00;;;;;;;18.38;10.23;;;11.30;75.70;;;;;;5045265;28;20029;-73
2022/05/06 03:43:27;;;;;;;12.50;9.38;;;11.20;75.70;;;;;;5047064;28;20113;-74
2022/05/06 03:45:53;;;;;;;10.77;8.40;;;11.20;75.70;;;;;;5045098;28;20025;-73
2022/05/06 03:48:21;;;;;;;16.05;8.95;;;11.20;75.70;;;;;;5047642;28;20034;-73
2022/05/06 03:53:31;;;;;;;12.10;8.18;;;11.20;75.60;;;;;;5046298;28;20052;-73
2022/05/06 03:55:56;;;;;;;14.68;8.30;;;11.10;75.50;;;;;;5046796;28;20017;-72
2022/05/06 03:58:22;;;;;;;12.85;8.82;;;11.10;75.50;;;;;;5048446;28;20051;-75
2022/05/06 04:00:47;;;;;;;13.05;9.15;;;11.10;75.60;;;;;;5045172;28;20037;-73
2022/05/06 04:03:14;;;;;;;15.05;8.07;;;11.00;75.70;;;;;;5046459;28;20033;-73
2022/05/06 04:05:40;;;;;;;15.20;7.70;;;11.00;75.80;;;;;;5043371;28;20566;-74
2022/05/06 04:08:06;;;;;;;16.13;8.13;;;10.90;75.70;;;;;;5047049;28;20107;-73
2022/05/06 04:10:32;;;;;;;13.07;7.07;;;10.90;75.90;;;;;;5047047;28;20478;-71
2022/05/06 04:12:58;;;;;;;17.73;7.65;;;10.80;75.90;;;;;;5049582;28;20033;-71
2022/05/06 04:15:23;;;;;;;12.02;8.27;;;10.80;75.90;;;;;;5041381;28;20032;-72
2022/05/06 04:17:49;;;;;;;18.90;9.00;;;10.80;76.00;;;;;;5048703;28;20025;-71
2022/05/06 04:25:43;;;;;;;12.68;7.75;;;10.70;76.10;;;;;;5047299;28;20574;-71
2022/05/06 04:28:08;;;;;;;16.85;6.85;;;10.70;76.00;;;;;;5047968;28;20103;-72
2022/05/06 04:30:34;;;;;;;20.17;6.53;;;10.70;76.00;;;;;;5045337;28;20036;-73
2022/05/06 04:32:59;;;;;;;13.50;6.55;;;10.70;76.00;;;;;;5045427;28;20425;-72
2022/05/06 04:35:25;;;;;;;12.65;7.28;;;10.70;76.00;;;;;;5044269;28;21057;-72
2022/05/06 04:37:51;;;;;;;13.15;7.22;;;10.70;76.10;;;;;;5047954;28;20029;-72
2022/05/06 04:40:17;;;;;;;10.27;7.05;;;10.70;76.10;;;;;;5046806;28;20029;-73
2022/05/06 04:42:42;;;;;;;12.18;8.32;;;10.70;76.10;;;;;;5050433;28;20097;-72
2022/05/06 04:45:08;;;;;;;16.02;9.00;;;10.70;76.10;;;;;;5048450;28;20094;-72
2022/05/06 04:47:34;;;;;;;21.77;6.85;;;10.80;76.20;;;;;;5048402;28;20029;-72
2022/05/06 04:50:00;;;;;;;15.23;6.50;;;10.80;76.10;;;;;;5051458;28;20387;-71
2022/05/06 04:52:26;;;;;;;13.88;7.63;;;10.80;76.10;;;;;;5049203;28;20017;-71
2022/05/06 04:54:51;;;;;;;14.32;6.93;;;10.80;76.10;;;;;;5050980;28;20482;-71
2022/05/06 04:57:17;;;;;;;12.73;7.38;;;10.90;76.10;;;;;;5047530;28;20040;-72
2022/05/06 04:59:47;;;;;;;12.35;6.40;;;10.90;76.00;;;;;;5049643;28;20543;-72
2022/05/06 05:02:14;;;;;;;12.27;6.72;;;11.00;76.00;;;;;;5048019;28;20012;-71
2022/05/06 05:04:40;;;;;;;13.00;6.55;;;11.10;76.00;;;;;;5051229;28;20128;-73
2022/05/06 05:07:06;;;;;;;16.30;8.52;;;11.10;76.00;;;;;;5048023;28;20100;-75
2022/05/06 05:09:31;;;;;;;18.20;7.43;;;11.10;75.90;;;;;;5053247;28;20126;-73
2022/05/06 05:11:57;;;;;;;16.73;7.35;;;11.10;75.90;;;;;;5048019;28;20855;-72
2022/05/06 05:14:23;;;;;;;12.32;5.80;;;11.20;75.90;;;;;;5052248;28;20063;-73
2022/05/06 05:16:50;;;;;;;23.48;6.93;;;11.20;75.70;;;;;;5051393;28;20029;-72
2022/05/06 05:19:16;;;;;;;25.17;7.03;;;11.20;75.70;;;;;;5051411;28;20036;-73
2022/05/06 05:21:42;;;;;;;23.02;6.50;;;11.20;75.80;;;;;;5046811;28;20025;-72
2022/05/06 05:24:07;;;;;;;11.07;6.72;;;11.10;76.00;;;;;;5051763;28;20024;-72
2022/05/06 05:26:34;;;;;;;25.50;8.65;;;11.10;76.10;;;;;;5049647;28;20491;-73
2022/05/06 05:29:00;;;;;;;26.05;7.47;;;11.20;76.30;;;;;;5051081;28;20090;-73
2022/05/06 05:31:25;;;;;;;13.70;6.93;;;11.20;76.20;;;;;;5046435;28;20483;-72
2022/05/06 05:33:52;;;;;;;9.73;6.90;;;11.30;76.20;;;;;;5051826;28;20074;-72
2022/05/06 05:36:18;;;;;;;13.13;6.57;;;11.40;76.00;;;;;;5051143;28;20099;-75
2022/05/06 05:38:44;;;;;;;15.43;6.60;;;11.50;75.90;;;;;;5047653;28;20021;-71
2022/05/06 05:41:09;;;;;;;8.95;7.05;;;11.60;75.70;;;;;;5048567;28;20044;-71
2022/05/06 05:49:03;;;;;;;8.57;6.03;;;12.00;75.40;;;;;;5053348;28;20056;-75
2022/05/06 05:51:29;;;;;;;19.02;6.93;;;12.10;75.10;;;;;;5048972;28;20439;-71
2022/05/06 05:53:54;;;;;;;12.95;6.90;;;12.10;75.00;;;;;;5044515;28;20060;-71
2022/05/06 05:56:20;;;;;;;11.77;6.80;;;12.20;74.80;;;;;;5046391;28;20029;-72
2022/05/06 05:58:46;;;;;;;21.65;7.55;;;12.30;74.70;;;;;;5041185;28;20493;-72
2022/05/06 06:01:11;;;;;;;17.80;7.57;;;12.40;74.50;;;;;;5045111;28;20017;-72
2022/05/06 06:03:37;;;;;;;7.53;4.47;;;12.60;74.30;;;;;;5050093;28;20433;-72
2022/05/06 06:06:03;;;;;;;10.68;8.02;;;12.80;74.00;;;;;;5042819;28;20025;-72
2022/05/06 06:08:28;;;;;;;12.07;7.53;;;12.80;73.90;;;;;;5045853;28;20131;-72
2022/05/06 06:10:54;;;;;;;10.02;7.28;;;12.90;73.90;;;;;;5047135;28;20454;-73
2022/05/06 06:13:20;;;;;;;10.88;8.07;;;13.10;73.80;;;;;;5045555;28;20491;-73
2022/05/06 06:15:45;;;;;;;9.55;7.13;;;13.50;73.20;;;;;;5046613;28;20495;-74
2022/05/06 06:18:11;;;;;;;9.07;5.93;;;13.90;72.40;;;;;;5041853;28;20490;-71
2022/05/06 06:20:39;;;;;;;9.88;7.75;;;14.60;71.30;;;;;;5046383;28;20032;-73
2022/05/06 06:23:05;;;;;;;10.73;8.77;;;15.00;69.30;;;;;;5044743;28;20503;-72
2022/05/06 06:25:31;;;;;;;10.23;7.60;;;15.20;68.70;;;;;;5043317;28;20096;-72
2022/05/06 06:27:56;;;;;;;10.77;7.90;;;15.20;68.40;;;;;;5043376;28;20029;-72
2022/05/06 06:30:23;;;;;;;8.10;6.63;;;15.30;68.10;;;;;;5043157;28;20581;-71
2022/05/06 06:32:50;;;;;;;8.75;6.80;;;15.10;68.20;;;;;;5039203;28;20025;-72
2022/05/06 06:35:16;;;;;;;9.43;7.50;;;15.00;68.80;;;;;;5062477;28;20021;-72
2022/05/06 06:37:42;;;;;;;9.52;7.45;;;14.80;70.00;;;;;;5044332;28;20406;-72
2022/05/06 06:40:08;;;;;;;16.55;6.78;;;14.60;69.90;;;;;;5043414;28;20021;-74
2022/05/06 06:42:34;;;;;;;10.18;8.35;;;14.60;70.20;;;;;;5044326;28;20112;-72
2022/05/06 06:44:59;;;;;;;12.63;9.15;;;14.50;70.50;;;;;;5047623;28;20763;-73
2022/05/06 06:47:24;;;;;;;18.30;9.18;;;14.30;70.90;;;;;;5043823;28;20108;-72
2022/05/06 06:49:50;;;;;;;9.90;7.32;;;14.10;71.40;;;;;;5047628;28;20735;-73
2022/05/06 06:52:16;;;;;;;10.98;8.77;;;14.10;71.70;;;;;;5049793;28;20032;-73
2022/05/06 06:54:41;;;;;;;11.65;8.30;;;14.00;72.10;;;;;;5047278;28;20056;-72
2022/05/06 06:57:07;;;;;;;10.57;8.30;;;13.90;72.40;;;;;;5046803;28;20032;-74
2022/05/06 06:59:32;;;;;;;10.10;7.38;;;13.90;72.50;;;;;;5044498;28;20024;-75
2022/05/06 07:01:58;;;;;;;11.60;8.95;;;13.90;72.60;;;;;;5048700;28;20021;-72
2022/05/06 07:04:24;;;;;;;10.32;7.97;;;13.90;72.60;;;;;;5041473;28;20036;-72
2022/05/06 07:12:20;;;;;;;12.63;10.30;;;14.10;72.50;;;;;;5043977;28;20040;-72
2022/05/06 07:14:46;;;;;;;11.18;8.07;;;14.10;72.70;;;;;;5045991;28;20029;-72
2022/05/06 07:17:13;;;;;;;10.38;7.57;;;14.10;72.80;;;;;;5042920;28;20025;-74
2022/05/06 07:19:39;;;;;;;14.82;10.90;;;14.30;72.70;;;;;;5047496;28;20017;-72
2022/05/06 07:22:04;;;;;;;14.60;10.30;;;14.40;72.70;;;;;;5046668;28;20033;-72
2022/05/06 07:24:30;;;;;;;18.38;11.68;;;14.30;72.60;;;;;;5045999;28;20032;-71
2022/05/06 07:26:56;;;;;;;12.57;9.80;;;14.40;72.70;;;;;;5044965;28;20060;-74
2022/05/06 07:29:22;;;;;;;11.30;8.48;;;14.30;72.80;;;;;;5046006;28;20060;-72
2022/05/06 07:31:48;;;;;;;13.05;10.10;;;14.40;72.70;;;;;;5048156;28;20527;-74
2022/05/06 07:34:15;;;;;;;12.60;9.88;;;14.50;72.70;;;;;;5045011;28;20033;-72
2022/05/06 07:36:42;;;;;;;19.20;13.32;;;14.60;72.70;;;;;;5045126;28;20024;-72
2022/05/06 07:39:17;;;;;;;19.63;14.52;;;14.60;72.70;;;;;;5043729;28;20017;-72
2022/05/06 07:41:43;;;;;;;16.02;12.18;;;14.70;72.60;;;;;;5046604;28;20086;-72
2022/05/06 07:44:09;;;;;;;15.15;10.63;;;14.70;72.80;;;;;;5045169;28;20398;-72
2022/05/06 07:46:36;;;;;;;18.13;14.65;;;14.80;72.70;;;;;;5044248;28;20099;-73
2022/05/06 07:49:02;;;;;;;15.68;12.20;;;14.80;72.60;;;;;;5040852;28;20059;-72
2022/05/06 07:51:28;;;;;;;13.50;11.00;;;15.00;72.50;;;;;;5038781;28;20033;-72
2022/05/06 07:53:55;;;;;;;15.20;11.68;;;15.00;72.40;;;;;;5033811;28;20037;-72
2022/05/06 07:56:22;;;;;;;17.55;13.65;;;15.00;72.20;;;;;;5040768;28;20029;-73
2022/05/06 07:58:47;;;;;;;14.25;10.73;;;15.10;72.20;;;;;;5045259;28;20021;-72
2022/05/06 08:01:13;;;;;;;13.52;10.25;;;15.10;72.10;;;;;;5041849;28;20014;-73
2022/05/06 08:06:23;;;;;;;12.10;8.65;;;15.40;71.40;;;;;;5045383;28;20063;-73
2022/05/06 08:08:49;;;;;;;10.63;8.50;;;15.70;71.00;;;;;;5039346;28;20484;-72
2022/05/06 08:11:14;;;;;;;11.90;9.90;;;16.00;70.60;;;;;;5046049;28;20478;-72
2022/05/06 08:13:40;;;;;;;10.13;8.23;;;16.20;69.80;;;;;;5042350;28;20468;-72
2022/05/06 08:16:06;;;;;;;12.65;10.07;;;16.40;69.40;;;;;;5045778;28;20060;-72
2022/05/06 08:18:31;;;;;;;12.10;9.25;;;16.60;69.00;;;;;;5046241;28;20071;-74
2022/05/06 08:20:57;;;;;;;10.40;8.60;;;16.70;68.90;;;;;;5045050;28;20016;-72
2022/05/06 08:23:23;;;;;;;11.23;8.98;;;16.80;68.70;;;;;;5046923;28;20033;-72
2022/05/06 08:25:53;;;;;;;10.52;8.63;;;16.80;68.70;;;;;;5049415;28;20093;-72
2022/05/06 08:28:19;;;;;;;13.23;10.23;;;16.90;68.80;;;;;;5046882;28;20056;-73
2022/05/06 08:30:54;;;;;;;10.68;8.45;;;17.00;68.60;;;;;;5050755;28;20506;-72
2022/05/06 08:33:21;;;;;;;10.70;8.70;;;17.10;68.60;;;;;;5046239;28;20029;-72
2022/05/06 08:35:47;;;;;;;11.63;9.25;;;17.30;68.50;;;;;;5047363;28;20463;-71
2022/05/06 08:38:14;;;;;;;11.82;9.27;;;17.50;68.00;;;;;;5050963;28;20025;-71
2022/05/06 08:40:40;;;;;;;11.68;9.05;;;17.40;67.50;;;;;;5046646;28;20566;-71
2022/05/06 08:43:06;;;;;;;10.68;8.50;;;17.50;67.50;;;;;;5053144;28;20071;-70
2022/05/06 08:51:03;;;;;;;12.35;8.60;;;17.90;66.50;;;;;;5048183;28;20094;-73
2022/05/06 08:53:31;;;;;;;15.77;10.55;;;18.10;66.30;;;;;;5046529;28;20055;-70
2022/05/06 08:55:59;;;;;;;12.05;9.02;;;18.10;65.80;;;;;;5047160;28;20028;-70
2022/05/06 08:58:25;;;;;;;13.10;10.07;;;18.30;65.80;;;;;;5045865;28;20051;-71
2022/05/06 09:01:09;;;;;;;10.60;8.18;;;18.30;65.40;;;;;;5044074;28;20025;-71
2022/05/06 09:03:39;;;;;;;10.57;8.57;;;18.40;65.10;;;;;;5051092;28;20386;-71
2022/05/06 09:06:15;;;;;;;11.82;9.32;;;18.50;65.10;;;;;;5045675;28;20076;-72
2022/05/06 09:08:45;;;;;;;33.17;11.15;;;18.50;65.20;;;;;;5050487;28;20399;-72
2022/05/06 09:11:11;;;;;;;19.83;12.18;;;18.60;64.00;;;;;;5042641;28;20630;-72
2022/05/06 09:13:38;;;;;;;10.40;8.10;;;18.40;63.20;;;;;;5061945;28;20693;-72
2022/05/06 09:19:19;;;;;;;10.43;8.45;;;18.50;63.70;;;;;;5051426;28;20031;-71
2022/05/06 09:22:02;;;;;;;9.85;6.72;;;18.70;63.40;;;;;;5063388;28;20035;-71
2022/05/06 09:24:28;;;;;;;8.57;6.63;;;19.00;63.00;;;;;;5053969;28;20029;-73
2022/05/06 09:27:08;;;;;;;8.88;7.13;;;19.10;62.60;;;;;;5049625;28;20032;-72
2022/05/06 09:29:38;;;;;;;8.63;6.35;;;19.20;61.90;;;;;;5044898;28;20017;-77
2022/05/06 09:32:26;;;;;;;9.13;7.05;;;19.30;61.50;;;;;;5050146;28;20036;-70
2022/05/06 09:34:56;;;;;;;7.07;5.72;;;19.40;61.50;;;;;;5057414;28;20090;-72
2022/05/06 09:37:29;;;;;;;6.47;5.20;;;19.50;60.50;;;;;;5043487;28;20482;-71
2022/05/06 09:40:13;;;;;;;6.00;5.18;;;19.60;60.00;;;;;;5060745;28;20096;-71
2022/05/06 09:42:40;;;;;;;6.53;5.15;;;19.70;59.40;;;;;;5049183;28;20017;-73
2022/05/06 09:45:08;;;;;;;5.72;5.07;;;19.80;59.30;;;;;;5048259;28;20029;-74
2022/05/06 09:47:34;;;;;;;6.40;5.32;;;19.90;59.10;;;;;;5048919;28;20025;-73
2022/05/06 09:50:01;;;;;;;5.70;5.00;;;20.00;58.70;;;;;;5055307;28;20653;-72
2022/05/06 09:52:26;;;;;;;5.75;5.15;;;20.10;58.10;;;;;;5050243;28;20049;-75
2022/05/06 09:54:53;;;;;;;5.35;4.05;;;20.10;57.50;;;;;;5046604;28;20072;-71
2022/05/06 09:57:19;;;;;;;6.47;4.80;;;20.20;57.40;;;;;;5044584;28;20029;-75
2022/05/06 09:59:45;;;;;;;5.75;4.50;;;20.10;57.00;;;;;;5052704;28;20032;-75
2022/05/06 10:02:12;;;;;;;5.28;4.78;;;20.30;56.80;;;;;;5044983;28;20112;-70
2022/05/06 10:04:39;;;;;;;4.15;3.67;;;20.30;56.40;;;;;;5042558;28;20360;-70
2022/05/06 10:07:11;;;;;;;4.93;4.43;;;20.20;56.10;;;;;;5052595;28;20562;-70
2022/05/06 10:09:44;;;;;;;;;;;20.20;56.10;;;;;;5045617;28;20044;-70
2022/05/06 10:12:11;;;;;;;5.22;4.18;;;20.30;56.10;;;;;;5053286;28;19914;-73
2022/05/06 10:14:40;;;;;;;5.22;4.20;;;20.40;55.70;;;;;;5055643;28;20201;-71
2022/05/06 10:17:05;;;;;;;3.40;3.10;;;20.40;55.30;;;;;;5057659;28;20024;-71
2022/05/06 10:19:37;;;;;;;4.57;3.75;;;20.50;55.30;;;;;;5045640;28;21318;-74
2022/05/06 10:22:03;;;;;;;3.97;3.20;;;20.60;54.70;;;;;;5044657;28;20582;-70
2022/05/06 10:24:39;;;;;;;3.85;3.30;;;20.80;54.40;;;;;;5056940;28;20096;-73
2022/05/06 10:32:25;;;;;;;3.47;3.00;;;20.90;53.80;;;;;;5044953;28;20439;-71
2022/05/06 10:33:17;;;;;;;3.40;3.03;;;21.10;52.90;;;;;;5049190;28;21251;-70
2022/05/06 10:35:46;;;;;;;3.90;3.47;;;21.10;52.80;;;;;;5049182;28;20028;-73
2022/05/06 10:38:19;;;;;;;4.30;3.90;;;21.20;52.70;;;;;;5047607;28;20136;-73
2022/05/06 10:40:52;;;;;;;4.05;3.63;;;21.30;52.30;;;;;;5045646;28;20052;-73
2022/05/06 10:43:48;;;;;;;4.38;3.58;;;21.30;52.20;;;;;;5050082;28;20060;-72
2022/05/06 10:46:34;;;;;;;5.28;4.15;;;21.40;52.00;;;;;;5046384;28;20036;-73
2022/05/06 10:49:37;;;;;;;6.47;4.25;;;21.40;51.50;;;;;;5048902;28;20052;-72
2022/05/06 10:52:28;;;;;;;5.05;3.95;;;21.40;51.20;;;;;;5046382;28;20502;-77
2022/05/06 10:55:00;;;;;;;10.00;4.75;;;21.40;51.10;;;;;;5045687;28;20044;-71
2022/05/06 10:57:31;;;;;;;6.28;5.35;;;21.50;51.90;;;;;;5035082;28;20049;-72
2022/05/06 11:00:03;;;;;;;6.63;5.97;;;21.50;52.30;;;;;;5050268;28;20086;-70
2022/05/06 11:02:34;;;;;;;5.75;4.53;;;21.40;52.30;;;;;;5045027;28;20420;-76
2022/05/06 11:05:02;;;;;;;4.65;3.67;;;21.40;52.60;;;;;;5041698;28;20953;-70
2022/05/06 11:07:30;;;;;;;4.55;4.13;;;21.60;52.50;;;;;;5044478;28;20483;-75
2022/05/06 11:09:56;;;;;;;5.00;3.45;;;21.60;52.20;;;;;;5043764;28;20390;-71
2022/05/06 11:12:37;;;;;;;2.72;2.53;;;21.90;52.30;;;;;;5043251;28;20457;-72
2022/05/06 11:15:04;;;;;;;4.50;4.10;;;22.10;51.50;;;;;;5037271;28;20511;-70
2022/05/06 11:17:32;;;;;;;4.78;4.00;;;22.10;50.80;;;;;;5034471;28;20025;-72
2022/05/06 11:19:58;;;;;;;4.57;4.10;;;22.20;50.80;;;;;;5040192;28;20040;-70
2022/05/06 11:22:25;;;;;;;6.03;5.43;;;22.20;50.80;;;;;;5036240;28;20021;-70
2022/05/06 11:25:01;;;;;;;4.55;4.05;;;22.20;50.10;;;;;;5040642;28;20106;-71
2022/05/06 11:27:27;;;;;;;6.65;4.00;;;22.10;50.30;;;;;;5038436;28;20056;-69
2022/05/06 11:29:58;;;;;;;5.47;3.83;;;22.10;50.50;;;;;;5038679;28;20073;-70
2022/05/06 11:32:25;;;;;;;3.72;3.33;;;22.20;50.50;;;;;;5035765;28;20537;-70
2022/05/06 11:34:57;;;;;;;3.10;2.80;;;22.30;50.60;;;;;;5037793;28;20043;-72
2022/05/06 11:37:24;;;;;;;3.03;2.72;;;22.50;50.00;;;;;;5038930;28;20509;-68
2022/05/06 11:39:51;;;;;;;3.30;2.90;;;22.70;49.50;;;;;;5041289;28;20562;-70
2022/05/06 11:42:23;;;;;;;4.65;3.50;;;22.80;48.70;;;;;;5042531;28;20440;-70
2022/05/06 11:47:44;;;;;;;3.58;2.80;;;23.00;48.70;;;;;;5040231;28;20043;-68
2022/05/06 11:50:10;;;;;;;4.47;4.07;;;23.00;48.20;;;;;;5039588;28;20032;-68
2022/05/06 11:52:39;;;;;;;4.25;3.80;;;23.00;47.50;;;;;;5042195;28;20537;-69
2022/05/06 11:55:06;;;;;;;3.60;3.30;;;22.90;47.20;;;;;;5045183;28;20029;-69
2022/05/06 11:57:34;;;;;;;2.60;2.40;;;22.90;47.40;;;;;;5047582;28;20498;-70
2022/05/06 12:00:02;;;;;;;3.40;2.70;;;23.00;47.50;;;;;;5046742;28;20028;-70
2022/05/06 12:02:27;;;;;;;2.72;2.50;;;23.20;47.30;;;;;;5044563;28;20018;-69
2022/05/06 12:04:53;;;;;;;3.72;2.47;;;23.30;47.20;;;;;;5045588;28;22152;-69
2022/05/06 12:07:18;;;;;;;4.03;3.45;;;23.50;47.20;;;;;;5042821;28;20029;-71
2022/05/06 12:09:46;;;;;;;3.53;3.22;;;23.50;46.00;;;;;;5049897;28;20485;-69
2022/05/06 12:12:12;;;;;;;3.63;3.28;;;23.30;46.20;;;;;;5049654;28;20051;-69
2022/05/06 12:14:38;;;;;;;4.03;3.60;;;23.40;45.90;;;;;;5043939;28;20112;-70
2022/05/06 12:17:12;;;;;;;3.60;3.30;;;23.40;45.40;;;;;;5039355;28;20017;-69
2022/05/06 12:19:47;;;;;;;4.25;3.75;;;23.30;45.60;;;;;;5046786;28;20036;-71
2022/05/06 12:22:31;;;;;;;4.43;3.72;;;23.40;45.70;;;;;;5044387;28;20396;-71
2022/05/06 12:24:58;;;;;;;5.30;4.80;;;23.50;45.40;;;;;;5042597;28;20041;-69
2022/05/06 12:27:34;;;;;;;4.35;3.90;;;23.40;45.00;;;;;;5049328;28;20052;-70
2022/05/06 12:30:01;;;;;;;3.78;3.35;;;23.30;45.20;;;;;;5048097;28;20471;-70
2022/05/06 12:32:30;;;;;;;3.90;3.50;;;23.50;45.40;;;;;;5048014;28;20477;-69
2022/05/06 12:35:09;;;;;;;3.25;2.95;;;23.60;44.90;;;;;;5039038;28;20091;-71
2022/05/06 12:37:36;;;;;;;5.75;3.30;;;23.90;44.90;;;;;;5043911;28;20391;-72
2022/05/06 12:40:03;;;;;;;5.10;4.38;;;24.20;44.60;;;;;;5040911;28;20022;-71
2022/05/06 12:42:29;;;;;;;2.90;2.70;;;24.00;43.20;;;;;;5047510;28;20501;-68
2022/05/06 12:44:54;;;;;;;3.25;2.95;;;24.10;43.90;;;;;;5056207;28;20029;-70
2022/05/06 12:50:09;;;;;;;3.00;2.67;;;24.40;43.40;;;;;;5039273;28;20445;-71
2022/05/06 12:52:36;;;;;;;3.67;2.97;;;24.60;43.00;;;;;;5046852;28;20502;-69
2022/05/06 12:55:05;;;;;;;2.95;2.58;;;24.60;42.50;;;;;;5045144;28;20025;-68
2022/05/06 12:57:31;;;;;;;3.30;2.70;;;24.60;42.60;;;;;;5056375;28;20028;-71
2022/05/06 12:59:57;;;;;;;3.90;3.38;;;24.60;42.50;;;;;;5046263;28;20021;-69
2022/05/06 13:02:22;;;;;;;4.80;3.80;;;24.80;42.40;;;;;;5047462;28;20095;-73
2022/05/06 13:04:48;;;;;;;3.47;3.17;;;24.80;41.90;;;;;;5039590;28;20028;-70
2022/05/06 13:07:14;;;;;;;3.22;2.53;;;24.80;41.80;;;;;;5034637;28;20033;-72
2022/05/06 13:09:40;;;;;;;3.40;2.88;;;24.80;42.00;;;;;;5039601;28;20031;-70
2022/05/06 13:12:06;;;;;;;3.30;2.80;;;25.00;41.80;;;;;;5040108;28;20113;-71
2022/05/06 13:14:32;;;;;;;5.35;3.67;;;25.10;41.70;;;;;;5066987;28;20486;-69
2022/05/06 13:16:58;;;;;;;3.17;2.83;;;25.20;41.30;;;;;;5059340;28;20036;-69
2022/05/06 13:19:23;;;;;;;3.88;3.30;;;25.20;41.90;;;;;;5056978;28;20017;-69
2022/05/06 13:21:49;;;;;;;4.00;3.60;;;25.20;41.20;;;;;;5046732;28;20022;-69
2022/05/06 13:24:15;;;;;;;5.70;3.92;;;25.20;41.00;;;;;;5062198;28;20032;-70
2022/05/06 13:26:41;;;;;;;3.55;2.90;;;25.20;40.90;;;;;;5053262;28;20041;-70